Faith, Minnesota
Current Conditions -  °F | °C
As of 10:55 AM on Thursday 23 Oct 2014 (Local Time) from K3N8 Reporting Station
Clear Clear  
Wind Chill: 52°   Ceiling: Unl
Heat Index: 52°   Visibility: 10mi
Dew Point: 45°   Wind: 10mph
Humidity: 77%   Direction: 200°SSW
Pressure: 29.92"   Gusts: NA
Location:  47.2382°N, 96.2513°W
Report Text: K3N8 231555Z AUTO 20009KT 10SM CLR 11/07 A2992 RMK AO2 T01090070
Loading
Personal Weather Stations






























Interactive Weather Map
Tropical Storm Tracking
New forecast layout! Learn more

10-Day Weather Forecast

Advertisements
Track Severe Weather on mobile